sensor_id;sensor_type;location;lat;lon;timestamp;pressure;altitude;pressure_sealevel;temperature;humidity
9419;BME280;4748;50.802;7.132;2023-04-08T00:02:12;101513.88;;;10.25;100.00
9419;BME280;4748;50.802;7.132;2023-04-08T00:04:38;101508.53;;;10.25;100.00
9419;BME280;4748;50.802;7.132;2023-04-08T00:07:03;101513.66;;;10.26;100.00
9419;BME280;4748;50.802;7.132;2023-04-08T00:09:28;101519.47;;;10.30;100.00
9419;BME280;4748;50.802;7.132;2023-04-08T00:11:54;101523.97;;;10.29;100.00
9419;BME280;4748;50.802;7.132;2023-04-08T00:14:21;101516.16;;;10.28;100.00
9419;BME280;4748;50.802;7.132;2023-04-08T00:16:46;101523.78;;;10.31;100.00
9419;BME280;4748;50.802;7.132;2023-04-08T00:19:12;101526.06;;;10.34;100.00
9419;BME280;4748;50.802;7.132;2023-04-08T00:21:37;101523.22;;;10.35;100.00
9419;BME280;4748;50.802;7.132;2023-04-08T00:24:02;101518.22;;;10.32;100.00
9419;BME280;4748;50.802;7.132;2023-04-08T00:26:28;101519.09;;;10.33;100.00
9419;BME280;4748;50.802;7.132;2023-04-08T00:28:53;101517.41;;;10.32;100.00
9419;BME280;4748;50.802;7.132;2023-04-08T00:31:18;101519.47;;;10.30;100.00
9419;BME280;4748;50.802;7.132;2023-04-08T00:33:44;101520.28;;;10.30;100.00
9419;BME280;4748;50.802;7.132;2023-04-08T00:36:09;101528.91;;;10.26;100.00
9419;BME280;4748;50.802;7.132;2023-04-08T00:38:35;101526.03;;;10.27;100.00
9419;BME280;4748;50.802;7.132;2023-04-08T00:41:00;101522.34;;;10.28;100.00
9419;BME280;4748;50.802;7.132;2023-04-08T00:43:26;101523.56;;;10.26;100.00
9419;BME280;4748;50.802;7.132;2023-04-08T00:45:51;101526.66;;;10.29;100.00
9419;BME280;4748;50.802;7.132;2023-04-08T00:48:16;101524.81;;;10.30;100.00
9419;BME280;4748;50.802;7.132;2023-04-08T00:50:42;101530.19;;;10.30;100.00
9419;BME280;4748;50.802;7.132;2023-04-08T00:53:07;101535.97;;;10.33;100.00
9419;BME280;4748;50.802;7.132;2023-04-08T00:55:33;101533.47;;;10.32;100.00
9419;BME280;4748;50.802;7.132;2023-04-08T00:57:58;101536.78;;;10.34;100.00
9419;BME280;4748;50.802;7.132;2023-04-08T01:00:24;101536.78;;;10.34;100.00
9419;BME280;4748;50.802;7.132;2023-04-08T01:05:35;101534.69;;;10.29;100.00
9419;BME280;4748;50.802;7.132;2023-04-08T01:08:06;101536.16;;;10.32;100.00
9419;BME280;4748;50.802;7.132;2023-04-08T01:10:34;101535.47;;;10.23;100.00
9419;BME280;4748;50.802;7.132;2023-04-08T01:13:07;101534.84;;;10.21;100.00
9419;BME280;4748;50.802;7.132;2023-04-08T01:15:35;101533.00;;;10.22;100.00
9419;BME280;4748;50.802;7.132;2023-04-08T01:18:08;101526.44;;;10.24;100.00
9419;BME280;4748;50.802;7.132;2023-04-08T01:20:34;101536.75;;;10.27;100.00
9419;BME280;4748;50.802;7.132;2023-04-08T01:25:29;101535.72;;;10.28;100.00
9419;BME280;4748;50.802;7.132;2023-04-08T01:27:57;101530.31;;;10.22;100.00
9419;BME280;4748;50.802;7.132;2023-04-08T01:30:23;101535.06;;;10.20;100.00
9419;BME280;4748;50.802;7.132;2023-04-08T01:32:51;101534.66;;;10.23;100.00
9419;BME280;4748;50.802;7.132;2023-04-08T01:35:18;101536.50;;;10.22;100.00
9419;BME280;4748;50.802;7.132;2023-04-08T01:37:45;101535.66;;;10.22;100.00
9419;BME280;4748;50.802;7.132;2023-04-08T01:40:13;101533.78;;;10.16;100.00
9419;BME280;4748;50.802;7.132;2023-04-08T01:42:40;101541.19;;;10.14;100.00
9419;BME280;4748;50.802;7.132;2023-04-08T01:45:06;101533.09;;;10.08;100.00
9419;BME280;4748;50.802;7.132;2023-04-08T01:47:34;101530.50;;;10.14;100.00
9419;BME280;4748;50.802;7.132;2023-04-08T01:50:01;101528.63;;;10.15;100.00
9419;BME280;4748;50.802;7.132;2023-04-08T01:52:28;101529.44;;;10.15;100.00
9419;BME280;4748;50.802;7.132;2023-04-08T01:54:55;101541.56;;;10.11;100.00
9419;BME280;4748;50.802;7.132;2023-04-08T01:57:26;101538.66;;;10.06;100.00
9419;BME280;4748;50.802;7.132;2023-04-08T01:59:56;101542.78;;;10.09;100.00
9419;BME280;4748;50.802;7.132;2023-04-08T02:02:25;101531.84;;;10.04;100.00
9419;BME280;4748;50.802;7.132;2023-04-08T02:04:52;101538.19;;;10.03;100.00
9419;BME280;4748;50.802;7.132;2023-04-08T02:07:18;101539.44;;;10.00;100.00
9419;BME280;4748;50.802;7.132;2023-04-08T02:09:43;101531.22;;;10.02;100.00
9419;BME280;4748;50.802;7.132;2023-04-08T02:12:09;101531.22;;;10.02;100.00
9419;BME280;4748;50.802;7.132;2023-04-08T02:14:34;101536.09;;;9.98;100.00
9419;BME280;4748;50.802;7.132;2023-04-08T02:19:39;101525.81;;;9.95;100.00
9419;BME280;4748;50.802;7.132;2023-04-08T02:22:11;101534.47;;;9.97;100.00
9419;BME280;4748;50.802;7.132;2023-04-08T02:24:37;101530.97;;;9.97;100.00
9419;BME280;4748;50.802;7.132;2023-04-08T02:27:03;101531.09;;;9.89;100.00
9419;BME280;4748;50.802;7.132;2023-04-08T02:29:30;101531.59;;;9.99;100.00
9419;BME280;4748;50.802;7.132;2023-04-08T02:31:57;101529.03;;;9.91;100.00
9419;BME280;4748;50.802;7.132;2023-04-08T02:34:25;101536.50;;;9.95;100.00
9419;BME280;4748;50.802;7.132;2023-04-08T02:36:51;101529.03;;;9.91;100.00
9419;BME280;4748;50.802;7.132;2023-04-08T02:39:17;101534.47;;;9.97;100.00
9419;BME280;4748;50.802;7.132;2023-04-08T02:41:42;101533.16;;;9.93;100.00
9419;BME280;4748;50.802;7.132;2023-04-08T02:44:08;101533.81;;;9.95;100.00
9419;BME280;4748;50.802;7.132;2023-04-08T02:46:33;101528.28;;;9.97;100.00
9419;BME280;4748;50.802;7.132;2023-04-08T02:48:59;101538.53;;;9.93;100.00
9419;BME280;4748;50.802;7.132;2023-04-08T02:51:24;101536.84;;;9.92;100.00
9419;BME280;4748;50.802;7.132;2023-04-08T02:53:50;101537.69;;;9.93;100.00
9419;BME280;4748;50.802;7.132;2023-04-08T02:56:15;101533.63;;;9.97;100.00
9419;BME280;4748;50.802;7.132;2023-04-08T02:58:41;101545.91;;;9.91;100.00
9419;BME280;4748;50.802;7.132;2023-04-08T03:01:07;101545.91;;;9.91;100.00
9419;BME280;4748;50.802;7.132;2023-04-08T03:03:32;101545.06;;;9.91;100.00
9419;BME280;4748;50.802;7.132;2023-04-08T03:05:58;101544.47;;;9.89;100.00
9419;BME280;4748;50.802;7.132;2023-04-08T03:08:23;101547.31;;;9.87;100.00
9419;BME280;4748;50.802;7.132;2023-04-08T03:10:49;101537.03;;;9.84;100.00
9419;BME280;4748;50.802;7.132;2023-04-08T03:13:15;101539.31;;;9.87;100.00
9419;BME280;4748;50.802;7.132;2023-04-08T03:15:41;101544.25;;;9.90;100.00
9419;BME280;4748;50.802;7.132;2023-04-08T03:18:06;101546.19;;;9.96;100.00
9419;BME280;4748;50.802;7.132;2023-04-08T03:20:31;101539.94;;;9.89;100.00
9419;BME280;4748;50.802;7.132;2023-04-08T03:22:57;101536.03;;;9.92;100.00
9419;BME280;4748;50.802;7.132;2023-04-08T03:25:22;101543.22;;;9.91;100.00
9419;BME280;4748;50.802;7.132;2023-04-08T03:27:48;101540.22;;;9.94;100.00
9419;BME280;4748;50.802;7.132;2023-04-08T03:30:13;101548.25;;;9.94;100.00
9419;BME280;4748;50.802;7.132;2023-04-08T03:32:38;101546.75;;;9.92;100.00
9419;BME280;4748;50.802;7.132;2023-04-08T03:35:05;101549.41;;;9.92;100.00
9419;BME280;4748;50.802;7.132;2023-04-08T03:37:30;101559.25;;;9.91;100.00
9419;BME280;4748;50.802;7.132;2023-04-08T03:39:56;101554.75;;;9.92;100.00
9419;BME280;4748;50.802;7.132;2023-04-08T03:42:21;101550.44;;;9.91;100.00
9419;BME280;4748;50.802;7.132;2023-04-08T03:44:47;101549.22;;;9.93;100.00
9419;BME280;4748;50.802;7.132;2023-04-08T03:47:12;101559.91;;;9.93;100.00
9419;BME280;4748;50.802;7.132;2023-04-08T03:49:38;101551.25;;;9.91;100.00
9419;BME280;4748;50.802;7.132;2023-04-08T03:52:03;101550.03;;;9.94;100.00
9419;BME280;4748;50.802;7.132;2023-04-08T03:54:28;101547.56;;;9.92;100.00
9419;BME280;4748;50.802;7.132;2023-04-08T03:56:54;101552.09;;;9.92;100.00
9419;BME280;4748;50.802;7.132;2023-04-08T03:59:19;101553.72;;;9.93;100.00
9419;BME280;4748;50.802;7.132;2023-04-08T04:01:44;101557.91;;;9.95;100.00
9419;BME280;4748;50.802;7.132;2023-04-08T04:04:10;101560.31;;;9.90;100.00
9419;BME280;4748;50.802;7.132;2023-04-08T04:06:35;101558.25;;;9.92;100.00
9419;BME280;4748;50.802;7.132;2023-04-08T04:09:02;101552.47;;;9.89;100.00
9419;BME280;4748;50.802;7.132;2023-04-08T04:11:27;101548.97;;;9.88;100.00
9419;BME280;4748;50.802;7.132;2023-04-08T04:13:52;101559.41;;;9.83;100.00
9419;BME280;4748;50.802;7.132;2023-04-08T04:16:18;101556.59;;;9.91;100.00
9419;BME280;4748;50.802;7.132;2023-04-08T04:18:43;101558.84;;;9.88;100.00
9419;BME280;4748;50.802;7.132;2023-04-08T04:21:08;101556.97;;;9.88;100.00
9419;BME280;4748;50.802;7.132;2023-04-08T04:23:34;101557.44;;;9.92;100.00
9419;BME280;4748;50.802;7.132;2023-04-08T04:25:59;101560.69;;;9.87;100.00
9419;BME280;4748;50.802;7.132;2023-04-08T04:28:25;101559.84;;;9.87;100.00
9419;BME280;4748;50.802;7.132;2023-04-08T04:30:50;101564.78;;;9.83;100.00
9419;BME280;4748;50.802;7.132;2023-04-08T04:33:16;101564.78;;;9.83;100.00
9419;BME280;4748;50.802;7.132;2023-04-08T04:35:41;101564.13;;;9.81;100.00
9419;BME280;4748;50.802;7.132;2023-04-08T04:38:06;101564.81;;;9.90;100.00
9419;BME280;4748;50.802;7.132;2023-04-08T04:40:37;101573.69;;;9.90;100.00
9419;BME280;4748;50.802;7.132;2023-04-08T04:43:03;101579.22;;;9.89;100.00
9419;BME280;4748;50.802;7.132;2023-04-08T04:45:28;101573.69;;;9.90;100.00
9419;BME280;4748;50.802;7.132;2023-04-08T04:47:54;101573.03;;;9.88;100.00
9419;BME280;4748;50.802;7.132;2023-04-08T04:50:19;101571.00;;;9.90;100.00
9419;BME280;4748;50.802;7.132;2023-04-08T04:52:45;101574.31;;;9.92;100.00
9419;BME280;4748;50.802;7.132;2023-04-08T04:55:10;101576.97;;;9.92;100.00
9419;BME280;4748;50.802;7.132;2023-04-08T04:57:35;101574.50;;;9.91;100.00
9419;BME280;4748;50.802;7.132;2023-04-08T05:00:01;101582.53;;;9.91;100.00
9419;BME280;4748;50.802;7.132;2023-04-08T05:02:26;101580.03;;;9.89;100.00
9419;BME280;4748;50.802;7.132;2023-04-08T05:04:51;101581.25;;;9.87;100.00
9419;BME280;4748;50.802;7.132;2023-04-08T05:07:20;101587.06;;;9.90;100.00
9419;BME280;4748;50.802;7.132;2023-04-08T05:09:46;101589.66;;;9.84;100.00
9419;BME280;4748;50.802;7.132;2023-04-08T05:12:12;101585.59;;;9.88;100.00
9419;BME280;4748;50.802;7.132;2023-04-08T05:14:37;101580.47;;;9.93;100.00
9419;BME280;4748;50.802;7.132;2023-04-08T05:17:02;101582.31;;;9.92;100.00
9419;BME280;4748;50.802;7.132;2023-04-08T05:19:29;101584.06;;;10.00;100.00
9419;BME280;4748;50.802;7.132;2023-04-08T05:21:55;101584.44;;;9.97;100.00
9419;BME280;4748;50.802;7.132;2023-04-08T05:24:20;101592.94;;;10.00;100.00
9419;BME280;4748;50.802;7.132;2023-04-08T05:26:45;101587.97;;;9.97;100.00
9419;BME280;4748;50.802;7.132;2023-04-08T05:29:12;101587.44;;;10.08;100.00
9419;BME280;4748;50.802;7.132;2023-04-08T05:31:38;101589.72;;;10.11;100.00
9419;BME280;4748;50.802;7.132;2023-04-08T05:34:03;101589.28;;;10.08;100.00
9419;BME280;4748;50.802;7.132;2023-04-08T05:36:28;101595.34;;;9.95;100.00
9419;BME280;4748;50.802;7.132;2023-04-08T05:38:54;101591.28;;;9.99;100.00
9419;BME280;4748;50.802;7.132;2023-04-08T05:41:19;101600.31;;;9.98;100.00
9419;BME280;4748;50.802;7.132;2023-04-08T05:43:45;101601.38;;;10.04;100.00
9419;BME280;4748;50.802;7.132;2023-04-08T05:46:10;101609.19;;;9.99;100.00
9419;BME280;4748;50.802;7.132;2023-04-08T05:48:36;101606.69;;;9.97;100.00
9419;BME280;4748;50.802;7.132;2023-04-08T05:51:01;101616.53;;;9.97;100.00
9419;BME280;4748;50.802;7.132;2023-04-08T05:53:27;101613.41;;;9.93;100.00
9419;BME280;4748;50.802;7.132;2023-04-08T05:55:53;101626.97;;;9.92;100.00
9419;BME280;4748;50.802;7.132;2023-04-08T05:58:18;101630.28;;;9.94;100.00
9419;BME280;4748;50.802;7.132;2023-04-08T06:00:44;101631.66;;;9.90;100.00
9419;BME280;4748;50.802;7.132;2023-04-08T06:03:09;101636.94;;;9.98;100.00
9419;BME280;4748;50.802;7.132;2023-04-08T06:05:34;101636.56;;;10.01;100.00
9419;BME280;4748;50.802;7.132;2023-04-08T06:08:00;101633.28;;;10.05;100.00
9419;BME280;4748;50.802;7.132;2023-04-08T06:10:25;101630.50;;;10.13;100.00
9419;BME280;4748;50.802;7.132;2023-04-08T06:12:50;101639.16;;;10.15;100.00
9419;BME280;4748;50.802;7.132;2023-04-08T06:15:16;101638.56;;;10.19;100.00
9419;BME280;4748;50.802;7.132;2023-04-08T06:17:41;101643.03;;;10.13;100.00
9419;BME280;4748;50.802;7.132;2023-04-08T06:20:07;101646.78;;;10.18;100.00
9419;BME280;4748;50.802;7.132;2023-04-08T06:22:35;101645.19;;;10.23;100.00
9419;BME280;4748;50.802;7.132;2023-04-08T06:25:02;101650.34;;;10.25;100.00
9419;BME280;4748;50.802;7.132;2023-04-08T06:27:27;101662.63;;;10.19;100.00
9419;BME280;4748;50.802;7.132;2023-04-08T06:29:53;101667.25;;;10.25;100.00
9419;BME280;4748;50.802;7.132;2023-04-08T06:32:19;101668.88;;;10.26;100.00
9419;BME280;4748;50.802;7.132;2023-04-08T06:34:46;101657.97;;;10.28;100.00
9419;BME280;4748;50.802;7.132;2023-04-08T06:37:11;101668.44;;;10.23;100.00
9419;BME280;4748;50.802;7.132;2023-04-08T06:39:37;101666.41;;;10.25;100.00
9419;BME280;4748;50.802;7.132;2023-04-08T06:42:02;101661.13;;;10.31;100.00
9419;BME280;4748;50.802;7.132;2023-04-08T06:44:27;101671.44;;;10.34;100.00
9419;BME280;4748;50.802;7.132;2023-04-08T06:46:53;101663.78;;;10.31;100.00
9419;BME280;4748;50.802;7.132;2023-04-08T06:49:18;101667.75;;;10.35;100.00
9419;BME280;4748;50.802;7.132;2023-04-08T06:51:43;101662.41;;;10.35;100.00
9419;BME280;4748;50.802;7.132;2023-04-08T06:54:09;101663.25;;;10.42;100.00
9419;BME280;4748;50.802;7.132;2023-04-08T06:56:35;101675.19;;;10.40;100.00
9419;BME280;4748;50.802;7.132;2023-04-08T06:59:00;101674.72;;;10.36;100.00
9419;BME280;4748;50.802;7.132;2023-04-08T07:01:26;101673.09;;;10.35;100.00
9419;BME280;4748;50.802;7.132;2023-04-08T07:03:51;101668.94;;;10.33;100.00
9419;BME280;4748;50.802;7.132;2023-04-08T07:06:16;101677.19;;;10.31;100.00
9419;BME280;4748;50.802;7.132;2023-04-08T07:08:42;101680.28;;;10.35;100.00
9419;BME280;4748;50.802;7.132;2023-04-08T07:11:07;101685.50;;;10.43;100.00
9419;BME280;4748;50.802;7.132;2023-04-08T07:13:33;101686.78;;;10.47;100.00
9419;BME280;4748;50.802;7.132;2023-04-08T07:15:58;101693.66;;;10.56;100.00
9419;BME280;4748;50.802;7.132;2023-04-08T07:18:24;101700.09;;;10.68;100.00
9419;BME280;4748;50.802;7.132;2023-04-08T07:20:51;101704.69;;;10.73;100.00
9419;BME280;4748;50.802;7.132;2023-04-08T07:23:18;101705.97;;;10.77;100.00
9419;BME280;4748;50.802;7.132;2023-04-08T07:25:43;101704.75;;;10.80;100.00
9419;BME280;4748;50.802;7.132;2023-04-08T07:28:08;101711.19;;;10.85;100.00
9419;BME280;4748;50.802;7.132;2023-04-08T07:30:33;101716.34;;;10.87;100.00
9419;BME280;4748;50.802;7.132;2023-04-08T07:32:59;101709.59;;;10.97;100.00
9419;BME280;4748;50.802;7.132;2023-04-08T07:35:24;101721.59;;;11.01;100.00
9419;BME280;4748;50.802;7.132;2023-04-08T07:37:50;101727.34;;;10.98;100.00
9419;BME280;4748;50.802;7.132;2023-04-08T07:40:17;101729.00;;;10.99;100.00
9419;BME280;4748;50.802;7.132;2023-04-08T07:42:42;101729.88;;;11.06;100.00
9419;BME280;4748;50.802;7.132;2023-04-08T07:45:08;101731.31;;;11.09;100.00
9419;BME280;4748;50.802;7.132;2023-04-08T07:47:34;101737.53;;;11.09;100.00
9419;BME280;4748;50.802;7.132;2023-04-08T07:49:59;101734.28;;;11.20;100.00
9419;BME280;4748;50.802;7.132;2023-04-08T07:52:25;101735.34;;;11.25;100.00
9419;BME280;4748;50.802;7.132;2023-04-08T07:54:50;101731.78;;;11.18;100.00
9419;BME280;4748;50.802;7.132;2023-04-08T07:57:16;101744.13;;;11.13;100.00
9419;BME280;4748;50.802;7.132;2023-04-08T07:59:41;101748.66;;;11.13;100.00
9419;BME280;4748;50.802;7.132;2023-04-08T08:02:06;101748.84;;;11.11;100.00
9419;BME280;4748;50.802;7.132;2023-04-08T08:04:32;101759.84;;;11.16;100.00
9419;BME280;4748;50.802;7.132;2023-04-08T08:06:57;101764.00;;;11.25;100.00
9419;BME280;4748;50.802;7.132;2023-04-08T08:09:22;101767.50;;;11.25;100.00
9419;BME280;4748;50.802;7.132;2023-04-08T08:11:48;101769.84;;;11.35;100.00
9419;BME280;4748;50.802;7.132;2023-04-08T08:14:13;101779.16;;;11.39;100.00
9419;BME280;4748;50.802;7.132;2023-04-08T08:16:38;101773.81;;;11.45;100.00
9419;BME280;4748;50.802;7.132;2023-04-08T08:19:04;101775.88;;;11.43;100.00
9419;BME280;4748;50.802;7.132;2023-04-08T08:21:31;101778.97;;;11.47;100.00
9419;BME280;4748;50.802;7.132;2023-04-08T08:23:57;101785.25;;;11.54;100.00
9419;BME280;4748;50.802;7.132;2023-04-08T08:26:24;101786.47;;;11.51;100.00
9419;BME280;4748;50.802;7.132;2023-04-08T08:28:49;101783.97;;;11.50;100.00
9419;BME280;4748;50.802;7.132;2023-04-08T08:31:15;101787.31;;;11.52;100.00
9419;BME280;4748;50.802;7.132;2023-04-08T08:33:40;101781.56;;;11.61;100.00
9419;BME280;4748;50.802;7.132;2023-04-08T08:36:06;101796.78;;;11.54;100.00
9419;BME280;4748;50.802;7.132;2023-04-08T08:38:32;101792.59;;;11.79;100.00
9419;BME280;4748;50.802;7.132;2023-04-08T08:40:59;101791.94;;;11.71;100.00
9419;BME280;4748;50.802;7.132;2023-04-08T08:43:25;101789.91;;;11.79;100.00
9419;BME280;4748;50.802;7.132;2023-04-08T08:45:52;101798.91;;;11.65;100.00
9419;BME280;4748;50.802;7.132;2023-04-08T08:48:17;101810.34;;;11.80;100.00
9419;BME280;4748;50.802;7.132;2023-04-08T08:50:43;101796.94;;;11.86;100.00
9419;BME280;4748;50.802;7.132;2023-04-08T08:53:08;101802.81;;;12.03;100.00
9419;BME280;4748;50.802;7.132;2023-04-08T08:55:34;101806.56;;;12.15;100.00
9419;BME280;4748;50.802;7.132;2023-04-08T08:58:03;101807.81;;;12.19;100.00
9419;BME280;4748;50.802;7.132;2023-04-08T09:00:32;101818.97;;;12.22;100.00
9419;BME280;4748;50.802;7.132;2023-04-08T09:03:30;101816.50;;;12.21;100.00
9419;BME280;4748;50.802;7.132;2023-04-08T09:05:58;101822.47;;;12.16;100.00
9419;BME280;4748;50.802;7.132;2023-04-08T09:10:50;101821.25;;;12.25;100.00
9419;BME280;4748;50.802;7.132;2023-04-08T09:13:15;101822.34;;;12.43;100.00
9419;BME280;4748;50.802;7.132;2023-04-08T09:16:00;101819.44;;;12.38;100.00
9419;BME280;4748;50.802;7.132;2023-04-08T09:18:27;101817.78;;;12.31;100.00
9419;BME280;4748;50.802;7.132;2023-04-08T09:20:53;101818.56;;;12.25;100.00
9419;BME280;4748;50.802;7.132;2023-04-08T09:23:19;101817.28;;;12.08;100.00
9419;BME280;4748;50.802;7.132;2023-04-08T09:25:44;101822.66;;;12.08;100.00
9419;BME280;4748;50.802;7.132;2023-04-08T09:28:19;101818.91;;;12.03;100.00
9419;BME280;4748;50.802;7.132;2023-04-08T09:30:47;101828.66;;;12.17;100.00
9419;BME280;4748;50.802;7.132;2023-04-08T09:33:12;101819.59;;;12.18;100.00
9419;BME280;4748;50.802;7.132;2023-04-08T09:35:38;101830.16;;;12.32;100.00
9419;BME280;4748;50.802;7.132;2023-04-08T09:38:03;101826.47;;;12.46;100.00
9419;BME280;4748;50.802;7.132;2023-04-08T09:40:32;101831.28;;;12.57;100.00
9419;BME280;4748;50.802;7.132;2023-04-08T09:43:03;101837.28;;;12.72;100.00
9419;BME280;4748;50.802;7.132;2023-04-08T09:45:31;101839.97;;;12.72;100.00
9419;BME280;4748;50.802;7.132;2023-04-08T09:48:11;101838.09;;;12.66;100.00
9419;BME280;4748;50.802;7.132;2023-04-08T09:50:42;101836.44;;;12.77;100.00
9419;BME280;4748;50.802;7.132;2023-04-08T09:53:19;101838.16;;;12.91;100.00
9419;BME280;4748;50.802;7.132;2023-04-08T09:55:52;101836.31;;;12.98;100.00
9419;BME280;4748;50.802;7.132;2023-04-08T09:58:21;101840.47;;;13.20;100.00
9419;BME280;4748;50.802;7.132;2023-04-08T10:00:53;101845.63;;;13.15;100.00
9419;BME280;4748;50.802;7.132;2023-04-08T10:03:34;101841.47;;;13.13;100.00
9419;BME280;4748;50.802;7.132;2023-04-08T10:06:03;101838.16;;;13.04;100.00
9419;BME280;4748;50.802;7.132;2023-04-08T10:08:30;101849.34;;;13.14;100.00
9419;BME280;4748;50.802;7.132;2023-04-08T10:10:57;101845.41;;;13.29;100.00
9419;BME280;4748;50.802;7.132;2023-04-08T10:13:23;101846.25;;;13.30;100.00
9419;BME280;4748;50.802;7.132;2023-04-08T10:15:49;101834.41;;;13.44;100.00
9419;BME280;4748;50.802;7.132;2023-04-08T10:20:44;101843.09;;;13.52;100.00
9419;BME280;4748;50.802;7.132;2023-04-08T10:23:14;101836.28;;;13.50;100.00
9419;BME280;4748;50.802;7.132;2023-04-08T10:25:40;101840.22;;;13.47;100.00
9419;BME280;4748;50.802;7.132;2023-04-08T10:33:42;101851.00;;;13.02;100.00
9419;BME280;4748;50.802;7.132;2023-04-08T10:36:10;101845.63;;;13.02;100.00
9419;BME280;4748;50.802;7.132;2023-04-08T10:38:37;101852.25;;;12.93;100.00
9419;BME280;4748;50.802;7.132;2023-04-08T10:41:02;101846.66;;;12.95;100.00
9419;BME280;4748;50.802;7.132;2023-04-08T10:43:35;101853.69;;;13.02;100.00
9419;BME280;4748;50.802;7.132;2023-04-08T10:46:01;101844.19;;;13.06;100.00
9419;BME280;4748;50.802;7.132;2023-04-08T10:48:27;101852.88;;;13.27;100.00
9419;BME280;4748;50.802;7.132;2023-04-08T10:51:00;101844.78;;;13.34;100.00
9419;BME280;4748;50.802;7.132;2023-04-08T10:53:35;101853.47;;;13.49;100.00
9419;BME280;4748;50.802;7.132;2023-04-08T10:58:31;101847.59;;;13.84;100.00
9419;BME280;4748;50.802;7.132;2023-04-08T11:01:04;101834.34;;;13.76;100.00
9419;BME280;4748;50.802;7.132;2023-04-08T11:03:34;101836.03;;;13.71;100.00
9419;BME280;4748;50.802;7.132;2023-04-08T11:06:01;101842.63;;;13.81;100.00
9419;BME280;4748;50.802;7.132;2023-04-08T11:08:30;101839.91;;;13.87;100.00
9419;BME280;4748;50.802;7.132;2023-04-08T11:11:03;101826.81;;;14.04;100.00
9419;BME280;4748;50.802;7.132;2023-04-08T11:13:32;101828.50;;;13.98;100.00
9419;BME280;4748;50.802;7.132;2023-04-08T11:15:58;101831.34;;;14.16;100.00
9419;BME280;4748;50.802;7.132;2023-04-08T11:18:24;101829.28;;;14.12;100.00
9419;BME280;4748;50.802;7.132;2023-04-08T11:20:50;101827.03;;;14.02;100.00
9419;BME280;4748;50.802;7.132;2023-04-08T11:23:16;101822.69;;;14.01;100.00
9419;BME280;4748;50.802;7.132;2023-04-08T11:25:43;101823.91;;;14.05;100.00
9419;BME280;4748;50.802;7.132;2023-04-08T11:28:10;101815.03;;;13.98;100.00
9419;BME280;4748;50.802;7.132;2023-04-08T11:30:37;101820.88;;;13.82;100.00
9419;BME280;4748;50.802;7.132;2023-04-08T11:33:03;101823.59;;;13.82;100.00
9419;BME280;4748;50.802;7.132;2023-04-08T11:35:29;101827.94;;;13.71;100.00
9419;BME280;4748;50.802;7.132;2023-04-08T11:37:55;101819.06;;;13.64;100.00
9419;BME280;4748;50.802;7.132;2023-04-08T11:40:21;101828.22;;;13.50;100.00
9419;BME280;4748;50.802;7.132;2023-04-08T11:42:48;101828.81;;;13.45;100.00
9419;BME280;4748;50.802;7.132;2023-04-08T11:45:15;101825.09;;;13.46;100.00
9419;BME280;4748;50.802;7.132;2023-04-08T11:47:41;101823.25;;;13.34;100.00
9419;BME280;4748;50.802;7.132;2023-04-08T11:50:08;101815.81;;;13.36;100.00
9419;BME280;4748;50.802;7.132;2023-04-08T11:52:43;101811.69;;;13.40;100.00
9419;BME280;4748;50.802;7.132;2023-04-08T11:55:10;101820.75;;;13.52;100.00
9419;BME280;4748;50.802;7.132;2023-04-08T11:57:37;101819.50;;;13.48;100.00
9419;BME280;4748;50.802;7.132;2023-04-08T12:00:06;101816.19;;;13.52;100.00
9419;BME280;4748;50.802;7.132;2023-04-08T12:02:32;101820.34;;;13.42;100.00
9419;BME280;4748;50.802;7.132;2023-04-08T12:04:57;101821.41;;;13.34;100.00
9419;BME280;4748;50.802;7.132;2023-04-08T12:07:23;101818.31;;;13.25;100.00
9419;BME280;4748;50.802;7.132;2023-04-08T12:09:48;101814.16;;;13.35;100.00
9419;BME280;4748;50.802;7.132;2023-04-08T12:12:13;101812.91;;;13.37;100.00
9419;BME280;4748;50.802;7.132;2023-04-08T12:14:39;101824.91;;;13.48;100.00
9419;BME280;4748;50.802;7.132;2023-04-08T12:17:05;101819.91;;;13.64;100.00
9419;BME280;4748;50.802;7.132;2023-04-08T12:19:30;101813.50;;;13.59;100.00
9419;BME280;4748;50.802;7.132;2023-04-08T12:21:56;101824.00;;;13.73;100.00
9419;BME280;4748;50.802;7.132;2023-04-08T12:24:21;101821.31;;;13.79;100.00
9419;BME280;4748;50.802;7.132;2023-04-08T12:26:46;101821.31;;;13.79;100.00
9419;BME280;4748;50.802;7.132;2023-04-08T12:29:12;101826.88;;;13.84;100.00
9419;BME280;4748;50.802;7.132;2023-04-08T12:31:37;101825.47;;;13.76;100.00
9419;BME280;4748;50.802;7.132;2023-04-08T12:34:02;101824.19;;;13.84;100.00
9419;BME280;4748;50.802;7.132;2023-04-08T12:36:28;101822.09;;;13.93;100.00
9419;BME280;4748;50.802;7.132;2023-04-08T12:38:53;101818.16;;;13.95;100.00
9419;BME280;4748;50.802;7.132;2023-04-08T12:41:18;101822.91;;;14.00;100.00
9419;BME280;4748;50.802;7.132;2023-04-08T12:43:44;101828.06;;;14.01;100.00
9419;BME280;4748;50.802;7.132;2023-04-08T12:46:09;101818.53;;;14.05;100.00
9419;BME280;4748;50.802;7.132;2023-04-08T12:48:34;101817.69;;;14.05;100.00
9419;BME280;4748;50.802;7.132;2023-04-08T12:51:00;101821.78;;;14.20;100.00
9419;BME280;4748;50.802;7.132;2023-04-08T12:53:26;101815.97;;;14.23;100.00
9419;BME280;4748;50.802;7.132;2023-04-08T12:55:51;101808.75;;;14.17;100.00
9419;BME280;4748;50.802;7.132;2023-04-08T12:58:21;101817.03;;;14.22;100.00
9419;BME280;4748;50.802;7.132;2023-04-08T13:00:46;101802.78;;;14.15;100.00
9419;BME280;4748;50.802;7.132;2023-04-08T13:03:12;101807.06;;;14.23;100.00
9419;BME280;4748;50.802;7.132;2023-04-08T13:05:39;101806.00;;;14.30;100.00
9419;BME280;4748;50.802;7.132;2023-04-08T13:08:05;101812.16;;;14.37;100.00
9419;BME280;4748;50.802;7.132;2023-04-08T13:10:30;101817.97;;;14.40;100.00
9419;BME280;4748;50.802;7.132;2023-04-08T13:12:56;101807.94;;;14.47;100.00
9419;BME280;4748;50.802;7.132;2023-04-08T13:15:22;101808.94;;;14.59;100.00
9419;BME280;4748;50.802;7.132;2023-04-08T13:17:47;101816.38;;;14.64;100.00
9419;BME280;4748;50.802;7.132;2023-04-08T13:20:13;101814.78;;;14.80;100.00